createdAt,value
2022-08-20T00:02:21.704Z,7.18
2022-08-20T00:05:12.094Z,6.07
2022-08-20T00:08:04.210Z,6.65
2022-08-20T00:10:55.792Z,8.07
2022-08-20T00:13:56.307Z,8.82
2022-08-20T00:16:45.393Z,8.75
2022-08-20T00:19:35.830Z,4.28
2022-08-20T00:22:28.165Z,4.53
2022-08-20T00:25:17.452Z,5.40
2022-08-20T00:28:07.089Z,5.03
2022-08-20T00:30:56.479Z,4.75
2022-08-20T00:33:47.609Z,11.30
2022-08-20T00:36:38.107Z,8.15
2022-08-20T00:39:28.302Z,6.43
2022-08-20T00:42:19.717Z,7.85
2022-08-20T00:45:09.585Z,5.45
2022-08-20T00:48:00.211Z,4.85
2022-08-20T00:50:51.065Z,6.10
2022-08-20T00:53:42.033Z,7.30
2022-08-20T00:56:34.034Z,6.50
2022-08-20T00:59:28.148Z,5.25
2022-08-20T01:05:13.635Z,5.20
2022-08-20T01:08:06.594Z,9.10
2022-08-20T01:11:08.835Z,5.75
2022-08-20T01:14:09.004Z,6.70
2022-08-20T01:17:05.755Z,6.32
2022-08-20T01:20:09.754Z,6.40
2022-08-20T01:23:34.700Z,5.28
2022-08-20T01:29:38.880Z,6.00
2022-08-20T01:32:30.226Z,6.95
2022-08-20T01:35:23.534Z,6.90
2022-08-20T01:38:14.918Z,5.88
2022-08-20T01:41:35.241Z,5.47
2022-08-20T01:44:25.689Z,5.18
2022-08-20T01:47:31.879Z,9.18
2022-08-20T01:50:32.675Z,5.60
2022-08-20T01:53:35.146Z,7.05
2022-08-20T01:56:30.175Z,8.65
2022-08-20T01:59:19.638Z,6.03
2022-08-20T02:02:13.226Z,5.72
2022-08-20T02:05:03.857Z,5.30
2022-08-20T02:07:53.549Z,7.70
2022-08-20T02:10:47.894Z,5.00
2022-08-20T02:13:40.494Z,5.30
2022-08-20T02:16:37.285Z,5.05
2022-08-20T02:19:44.341Z,5.65
2022-08-20T02:22:51.406Z,7.15
2022-08-20T02:25:49.615Z,6.25
2022-08-20T02:28:39.878Z,5.95
2022-08-20T02:31:34.715Z,6.05
2022-08-20T02:34:24.382Z,6.28
2022-08-20T02:37:16.780Z,6.35
2022-08-20T02:40:10.134Z,6.65
2022-08-20T02:43:00.863Z,6.70
2022-08-20T02:45:52.238Z,6.07
2022-08-20T02:48:42.116Z,6.72
2022-08-20T02:51:33.400Z,6.18
2022-08-20T02:54:25.076Z,7.28
2022-08-20T02:57:20.340Z,7.10
2022-08-20T03:00:16.122Z,9.00
2022-08-20T03:03:10.398Z,9.38
2022-08-20T03:05:59.974Z,9.88
2022-08-20T03:08:49.597Z,9.38
2022-08-20T03:11:40.051Z,9.38
2022-08-20T03:14:29.133Z,11.05
2022-08-20T03:17:17.507Z,13.38
2022-08-20T03:20:08.141Z,11.95
2022-08-20T03:22:59.881Z,13.10
2022-08-20T03:25:48.780Z,30.70
2022-08-20T03:28:37.121Z,13.85
2022-08-20T03:31:25.105Z,26.92
2022-08-20T03:34:13.151Z,12.52
2022-08-20T03:37:01.267Z,11.50
2022-08-20T03:39:49.224Z,9.13
2022-08-20T03:42:37.468Z,11.13
2022-08-20T03:45:27.640Z,7.85
2022-08-20T03:48:20.433Z,7.80
2022-08-20T03:51:08.378Z,7.55
2022-08-20T03:53:56.461Z,8.48
2022-08-20T03:56:44.372Z,8.13
2022-08-20T03:59:33.083Z,7.65
2022-08-20T04:02:21.077Z,7.78
2022-08-20T04:05:10.217Z,8.45
2022-08-20T04:08:03.187Z,9.25
2022-08-20T04:10:51.704Z,8.10
2022-08-20T04:13:43.418Z,8.23
2022-08-20T04:16:33.525Z,7.45
2022-08-20T04:19:24.072Z,8.43
2022-08-20T04:22:14.001Z,9.07
2022-08-20T04:25:06.323Z,7.13
2022-08-20T04:28:00.246Z,7.30
2022-08-20T04:30:52.375Z,7.60
2022-08-20T04:33:43.044Z,8.15
2022-08-20T04:36:32.240Z,9.43
2022-08-20T04:39:22.898Z,7.72
2022-08-20T04:42:13.182Z,8.75
2022-08-20T04:45:02.338Z,8.40
2022-08-20T04:47:53.686Z,8.13
2022-08-20T04:50:47.009Z,7.82
2022-08-20T04:53:35.629Z,8.70
2022-08-20T04:56:29.436Z,8.82
2022-08-20T04:59:20.822Z,8.88
2022-08-20T05:02:12.376Z,8.48
2022-08-20T05:05:09.610Z,9.50
2022-08-20T05:07:58.370Z,12.38
2022-08-20T05:10:53.304Z,15.52
2022-08-20T05:13:56.198Z,16.80
2022-08-20T05:16:44.226Z,17.33
2022-08-20T05:19:38.935Z,16.45
2022-08-20T05:22:31.024Z,17.60
2022-08-20T05:25:19.182Z,25.67
2022-08-20T05:28:18.119Z,27.67
2022-08-20T05:31:09.590Z,20.45
2022-08-20T05:33:57.907Z,21.33
2022-08-20T05:36:49.646Z,23.23
2022-08-20T05:39:37.783Z,22.95
2022-08-20T05:42:27.522Z,22.25
2022-08-20T05:45:17.209Z,24.55
2022-08-20T05:48:16.347Z,21.02
2022-08-20T05:51:04.383Z,18.92
2022-08-20T05:53:52.402Z,20.40
2022-08-20T05:56:41.286Z,22.80
2022-08-20T05:59:29.449Z,24.13
2022-08-20T06:02:37.318Z,20.42
2022-08-20T06:05:26.683Z,20.75
2022-08-20T06:08:18.126Z,23.83
2022-08-20T06:11:07.698Z,23.65
2022-08-20T06:13:58.155Z,22.30
2022-08-20T06:16:57.875Z,17.85
2022-08-20T06:19:49.910Z,16.08
2022-08-20T06:22:41.426Z,15.48
2022-08-20T06:25:37.975Z,12.90
2022-08-20T06:28:29.463Z,13.43
2022-08-20T06:31:19.584Z,13.15
2022-08-20T06:34:10.879Z,12.57
2022-08-20T06:37:02.240Z,13.68
2022-08-20T06:39:55.497Z,13.38
2022-08-20T06:42:48.573Z,14.13
2022-08-20T06:45:40.114Z,12.85
2022-08-20T06:48:31.810Z,12.40
2022-08-20T06:51:23.382Z,11.55
2022-08-20T06:54:15.728Z,11.48
2022-08-20T06:57:06.565Z,12.73
2022-08-20T06:59:58.573Z,12.98
2022-08-20T07:02:50.318Z,11.98
2022-08-20T07:05:45.230Z,13.50
2022-08-20T07:08:36.733Z,13.45
2022-08-20T07:11:28.693Z,12.95
2022-08-20T07:14:20.906Z,13.40
2022-08-20T07:17:13.866Z,14.15
2022-08-20T07:20:08.112Z,13.35
2022-08-20T07:23:00.625Z,14.93
2022-08-20T07:25:51.678Z,14.10
2022-08-20T07:28:43.061Z,14.35
2022-08-20T07:31:53.805Z,14.95
2022-08-20T07:34:45.234Z,13.90
2022-08-20T07:37:45.540Z,14.05
2022-08-20T07:40:38.218Z,13.40
2022-08-20T07:43:29.143Z,12.95
2022-08-20T07:46:21.668Z,13.40
2022-08-20T07:49:13.502Z,13.43
2022-08-20T07:52:04.209Z,12.95
2022-08-20T07:54:58.657Z,12.32
2022-08-20T07:57:50.613Z,12.32
2022-08-20T08:00:42.467Z,10.52
2022-08-20T08:03:39.384Z,11.00
2022-08-20T08:06:45.556Z,10.32
2022-08-20T08:09:37.301Z,9.75
2022-08-20T08:12:36.711Z,9.65
2022-08-20T08:15:33.230Z,9.82
2022-08-20T08:18:31.887Z,8.40
2022-08-20T08:21:24.064Z,7.82
2022-08-20T08:24:20.496Z,7.82
2022-08-20T08:27:18.555Z,6.85
2022-08-20T08:30:12.715Z,5.97
2022-08-20T08:33:22.810Z,4.85
2022-08-20T08:36:17.383Z,4.63
2022-08-20T08:39:09.251Z,4.55
2022-08-20T08:42:00.726Z,4.30
2022-08-20T08:44:51.924Z,4.22
2022-08-20T08:47:42.302Z,3.90
2022-08-20T08:50:53.222Z,4.38
2022-08-20T08:53:55.750Z,4.05
2022-08-20T08:56:50.223Z,4.03
2022-08-20T08:59:52.133Z,3.45
2022-08-20T09:03:12.193Z,3.33
2022-08-20T09:06:05.441Z,4.68
2022-08-20T09:09:04.594Z,2.85
2022-08-20T09:12:11.180Z,3.90
2022-08-20T09:15:02.141Z,3.60
2022-08-20T09:17:53.749Z,3.10
2022-08-20T09:20:45.148Z,3.42
2022-08-20T09:23:36.454Z,3.08
2022-08-20T09:26:29.127Z,3.17
2022-08-20T09:29:18.821Z,3.08
2022-08-20T09:35:49.307Z,3.22
2022-08-20T09:38:43.528Z,3.22
2022-08-20T09:41:35.683Z,4.40
2022-08-20T09:44:26.277Z,2.63
2022-08-20T09:47:18.405Z,2.22
2022-08-20T09:50:07.356Z,2.45
2022-08-20T09:53:02.643Z,2.28
2022-08-20T09:56:00.411Z,2.00
2022-08-20T09:58:57.235Z,2.10
2022-08-20T10:01:53.612Z,3.45
2022-08-20T10:04:44.654Z,2.60
2022-08-20T10:07:41.679Z,3.28
2022-08-20T10:10:33.328Z,1.90
2022-08-20T10:13:23.033Z,2.58
2022-08-20T10:16:14.985Z,2.08
2022-08-20T10:19:09.239Z,2.30
2022-08-20T10:22:01.230Z,1.80
2022-08-20T10:24:51.581Z,1.92
2022-08-20T10:27:42.886Z,2.13
2022-08-20T10:30:35.348Z,1.77
2022-08-20T10:33:27.054Z,2.15
2022-08-20T10:36:19.185Z,1.42
2022-08-20T10:39:10.966Z,2.00
2022-08-20T10:42:05.261Z,1.20
2022-08-20T10:44:57.454Z,1.08
2022-08-20T10:47:49.026Z,1.40
2022-08-20T10:50:38.964Z,1.20
2022-08-20T10:53:29.735Z,1.95
2022-08-20T10:56:21.171Z,1.55
2022-08-20T10:59:12.600Z,1.33
2022-08-20T11:02:03.524Z,1.20
2022-08-20T11:04:55.214Z,2.03
2022-08-20T11:07:55.484Z,3.03
2022-08-20T11:10:48.278Z,1.30
2022-08-20T11:13:39.817Z,2.05
2022-08-20T11:16:35.114Z,3.17
2022-08-20T11:19:27.517Z,1.20
2022-08-20T11:22:19.176Z,0.95
2022-08-20T11:25:10.645Z,0.93
2022-08-20T11:28:04.707Z,2.33
2022-08-20T11:30:57.242Z,1.63
2022-08-20T11:33:47.579Z,1.05
2022-08-20T11:36:40.644Z,1.00
2022-08-20T11:39:32.775Z,1.30
2022-08-20T11:42:25.832Z,0.95
2022-08-20T11:45:17.082Z,4.35
2022-08-20T11:48:08.617Z,1.88
2022-08-20T11:51:00.363Z,2.58
2022-08-20T11:53:51.049Z,1.58
2022-08-20T11:56:42.105Z,1.20
2022-08-20T11:59:39.428Z,1.13
2022-08-20T12:02:35.292Z,3.20
2022-08-20T12:05:29.475Z,0.90
2022-08-20T12:08:26.824Z,0.75
2022-08-20T12:11:20.794Z,2.25
2022-08-20T12:14:12.983Z,3.00
2022-08-20T12:17:19.874Z,1.50
2022-08-20T12:20:13.129Z,0.90
2022-08-20T12:23:03.055Z,1.02
2022-08-20T12:25:54.508Z,0.80
2022-08-20T12:28:47.129Z,0.80
2022-08-20T12:31:39.105Z,2.95
2022-08-20T12:34:36.167Z,1.25
2022-08-20T12:37:33.051Z,0.63
2022-08-20T12:40:32.299Z,0.73
2022-08-20T12:43:26.235Z,1.42
2022-08-20T12:46:19.045Z,2.45
2022-08-20T12:49:09.434Z,2.05
2022-08-20T12:52:00.830Z,0.63
2022-08-20T12:54:51.941Z,0.57
2022-08-20T12:57:53.992Z,5.78
2022-08-20T13:00:50.937Z,0.73
2022-08-20T13:03:44.828Z,1.63
2022-08-20T13:06:36.580Z,0.88
2022-08-20T13:09:28.294Z,1.20
2022-08-20T13:12:18.381Z,1.33
2022-08-20T13:15:07.334Z,1.15
2022-08-20T13:18:01.477Z,1.48
2022-08-20T13:20:50.426Z,1.95
2022-08-20T13:23:40.749Z,2.05
2022-08-20T13:26:32.686Z,1.45
2022-08-20T13:29:24.188Z,1.90
2022-08-20T13:32:16.927Z,3.05
2022-08-20T13:35:05.810Z,1.23
2022-08-20T13:37:56.425Z,1.52
2022-08-20T13:40:47.484Z,3.03
2022-08-20T13:43:40.550Z,4.15
2022-08-20T13:46:32.101Z,2.25
2022-08-20T13:49:22.740Z,2.08
2022-08-20T13:52:16.859Z,2.38
2022-08-20T13:55:08.967Z,2.15
2022-08-20T13:58:06.230Z,2.83
2022-08-20T14:00:57.906Z,4.47
2022-08-20T14:03:49.583Z,2.38
2022-08-20T14:06:41.239Z,2.95
2022-08-20T14:09:31.543Z,4.30
2022-08-20T14:12:23.750Z,2.78
2022-08-20T14:15:16.073Z,2.63
2022-08-20T14:18:06.530Z,3.75
2022-08-20T14:20:58.108Z,4.15
2022-08-20T14:23:48.212Z,3.05
2022-08-20T14:26:39.989Z,6.90
2022-08-20T14:29:33.433Z,3.00
2022-08-20T14:32:26.143Z,2.67
2022-08-20T14:35:16.147Z,4.75
2022-08-20T14:38:06.422Z,3.85
2022-08-20T14:40:56.942Z,2.13
2022-08-20T14:43:47.631Z,2.10
2022-08-20T14:46:38.211Z,3.40
2022-08-20T14:49:29.925Z,2.45
2022-08-20T14:52:22.499Z,2.10
2022-08-20T14:55:17.770Z,3.40
2022-08-20T14:58:15.178Z,2.72
2022-08-20T15:01:06.592Z,3.58
2022-08-20T15:03:57.841Z,3.25
2022-08-20T15:06:49.154Z,2.90
2022-08-20T15:09:40.361Z,4.00
2022-08-20T15:12:31.905Z,2.25
2022-08-20T15:15:24.496Z,2.65
2022-08-20T15:18:15.716Z,2.17
2022-08-20T15:21:10.120Z,4.53
2022-08-20T15:24:03.634Z,2.20
2022-08-20T15:27:22.975Z,2.75
2022-08-20T15:30:19.852Z,1.70
2022-08-20T15:33:12.597Z,2.65
2022-08-20T15:36:06.983Z,3.50
2022-08-20T15:38:57.791Z,3.17
2022-08-20T15:41:49.131Z,2.08
2022-08-20T15:44:41.623Z,5.88
2022-08-20T15:47:46.969Z,4.85
2022-08-20T15:51:03.010Z,2.95
2022-08-20T15:54:24.149Z,3.00
2022-08-20T15:57:53.013Z,3.15
2022-08-20T16:01:24.850Z,3.15
2022-08-20T16:04:57.735Z,3.95
2022-08-20T16:08:19.874Z,4.63
2022-08-20T16:11:34.758Z,3.75
2022-08-20T16:14:35.221Z,2.88
2022-08-20T16:18:14.042Z,2.67
2022-08-20T16:21:10.715Z,5.22
2022-08-20T16:24:05.223Z,2.53
2022-08-20T16:27:25.687Z,2.50
2022-08-20T16:30:45.879Z,6.50
2022-08-20T16:34:01.140Z,3.80
2022-08-20T16:37:25.384Z,5.00
2022-08-20T16:40:52.471Z,2.63
2022-08-20T16:44:07.143Z,2.95
2022-08-20T16:47:20.769Z,2.28
2022-08-20T16:50:26.565Z,3.07
2022-08-20T16:53:28.233Z,2.85
2022-08-20T16:56:35.590Z,2.78
2022-08-20T16:59:31.217Z,2.58
2022-08-20T17:02:25.487Z,3.28
2022-08-20T17:05:17.728Z,5.07
2022-08-20T17:08:22.796Z,5.07
2022-08-20T17:11:33.183Z,4.35
2022-08-20T17:14:24.513Z,4.00
2022-08-20T17:17:35.869Z,3.20
2022-08-20T17:20:29.253Z,4.78
2022-08-20T17:23:24.178Z,3.42
2022-08-20T17:26:37.664Z,6.05
2022-08-20T17:29:34.268Z,6.00
2022-08-20T17:32:30.138Z,6.00
2022-08-20T17:35:37.981Z,3.47
2022-08-20T17:38:38.691Z,2.95
2022-08-20T17:41:37.040Z,5.35
2022-08-20T17:44:35.160Z,2.90
2022-08-20T17:47:34.029Z,4.55
2022-08-20T17:50:33.561Z,4.45
2022-08-20T17:53:36.196Z,5.25
2022-08-20T17:56:34.905Z,5.55
2022-08-20T18:00:00.637Z,5.75
2022-08-20T18:03:02.333Z,5.10
2022-08-20T18:06:04.064Z,4.82
2022-08-20T18:09:32.243Z,3.50
2022-08-20T18:12:51.955Z,6.32
2022-08-20T18:15:53.663Z,9.57
2022-08-20T18:19:15.965Z,4.43
2022-08-20T18:22:18.882Z,4.55
2022-08-20T18:25:28.415Z,6.68
2022-08-20T18:28:40.280Z,6.38
2022-08-20T18:31:59.055Z,4.85
2022-08-20T18:34:52.899Z,6.32
2022-08-20T18:37:44.721Z,5.93
2022-08-20T18:40:37.719Z,5.90
2022-08-20T18:43:31.520Z,6.72
2022-08-20T18:46:26.426Z,5.40
2022-08-20T18:49:27.714Z,6.32
2022-08-20T18:52:28.148Z,5.88
2022-08-20T18:55:47.742Z,10.45
2022-08-20T18:59:09.879Z,8.10
2022-08-20T19:02:15.953Z,9.73
2022-08-20T19:05:12.326Z,7.43
2022-08-20T19:08:05.863Z,6.00
2022-08-20T19:11:27.030Z,5.90
2022-08-20T19:14:32.957Z,7.43
2022-08-20T19:18:11.329Z,6.78
2022-08-20T19:21:05.145Z,7.72
2022-08-20T19:24:09.121Z,7.30
2022-08-20T19:27:04.745Z,9.50
2022-08-20T19:29:56.933Z,7.32
2022-08-20T19:32:53.611Z,9.82
2022-08-20T19:35:42.731Z,8.30
2022-08-20T19:38:33.534Z,7.45
2022-08-20T19:41:53.034Z,8.98
2022-08-20T19:44:49.657Z,7.60
2022-08-20T19:48:04.843Z,9.55
2022-08-20T19:51:30.765Z,6.43
2022-08-20T19:54:27.969Z,10.60
2022-08-20T19:57:19.195Z,9.05
2022-08-20T20:00:13.040Z,8.73
2022-08-20T20:03:15.498Z,7.50
2022-08-20T20:06:25.652Z,8.23
2022-08-20T20:09:25.467Z,12.68
2022-08-20T20:12:22.590Z,10.07
2022-08-20T20:15:11.196Z,9.35
2022-08-20T20:18:02.360Z,11.95
2022-08-20T20:20:58.222Z,10.55
2022-08-20T20:23:59.298Z,8.40
2022-08-20T20:26:49.380Z,10.00
2022-08-20T20:29:38.028Z,8.32
2022-08-20T20:32:29.240Z,10.38
2022-08-20T20:35:35.840Z,7.10
2022-08-20T20:38:28.873Z,9.15
2022-08-20T20:41:25.225Z,8.38
2022-08-20T20:44:24.928Z,9.88
2022-08-20T20:47:25.194Z,10.70
2022-08-20T20:50:13.188Z,9.63
2022-08-20T20:53:01.590Z,9.63
2022-08-20T20:55:57.865Z,11.13
2022-08-20T20:58:55.455Z,6.68
2022-08-20T21:01:48.292Z,11.95
2022-08-20T21:04:42.015Z,11.23
2022-08-20T21:07:31.287Z,13.20
2022-08-20T21:10:23.699Z,8.50
2022-08-20T21:13:12.124Z,10.25
2022-08-20T21:16:00.041Z,11.30
2022-08-20T21:18:48.457Z,13.93
2022-08-20T21:21:38.629Z,11.23
2022-08-20T21:24:26.998Z,7.40
2022-08-20T21:27:15.871Z,9.25
2022-08-20T21:30:05.323Z,12.48
2022-08-20T21:32:53.392Z,8.93
2022-08-20T21:35:41.336Z,9.80
2022-08-20T21:38:29.415Z,13.23
2022-08-20T21:41:17.673Z,13.68
2022-08-20T21:44:12.161Z,9.93
2022-08-20T21:47:01.840Z,7.25
2022-08-20T21:49:49.700Z,9.45
2022-08-20T21:52:38.161Z,7.75
2022-08-20T21:55:39.536Z,10.93
2022-08-20T21:58:27.814Z,10.63
2022-08-20T22:01:15.851Z,14.93
2022-08-20T22:04:06.167Z,9.63
2022-08-20T22:06:54.355Z,7.03
2022-08-20T22:09:42.757Z,11.38
2022-08-20T22:12:31.312Z,9.65
2022-08-20T22:15:19.235Z,8.18
2022-08-20T22:18:07.280Z,10.35
2022-08-20T22:20:55.388Z,8.13
2022-08-20T22:23:43.273Z,9.82
2022-08-20T22:26:32.120Z,12.50
2022-08-20T22:29:20.352Z,10.93
2022-08-20T22:32:08.285Z,10.57
2022-08-20T22:34:56.297Z,11.88
2022-08-20T22:37:44.205Z,16.15
2022-08-20T22:40:32.035Z,9.77
2022-08-20T22:43:20.526Z,10.25
2022-08-20T22:46:09.838Z,12.77
2022-08-20T22:48:57.917Z,14.60
2022-08-20T22:51:45.788Z,8.32
2022-08-20T22:54:35.723Z,8.05
2022-08-20T22:57:23.644Z,9.40
2022-08-20T23:00:16.767Z,13.35
2022-08-20T23:03:05.569Z,9.60
2022-08-20T23:05:53.573Z,10.52
2022-08-20T23:08:42.319Z,9.80
2022-08-20T23:11:30.270Z,14.48
2022-08-20T23:14:18.483Z,8.40
2022-08-20T23:17:13.484Z,12.77
2022-08-20T23:20:02.052Z,11.82
2022-08-20T23:22:49.946Z,12.20
2022-08-20T23:25:42.681Z,13.15
2022-08-20T23:28:30.601Z,14.52
2022-08-20T23:31:18.541Z,10.25
2022-08-20T23:34:06.468Z,13.85
2022-08-20T23:36:57.344Z,12.02
2022-08-20T23:39:46.575Z,13.20
2022-08-20T23:42:34.589Z,12.43
2022-08-20T23:45:22.744Z,10.23
2022-08-20T23:48:10.836Z,11.00
2022-08-20T23:50:58.725Z,13.63
2022-08-20T23:53:46.882Z,11.35
2022-08-20T23:56:34.833Z,13.52
2022-08-20T23:59:23.206Z,11.30
